Arba, Indiana
Current Conditions -  °F | °C
As of 7:15 AM on Friday 31 Oct 2014 (Local Time) from KVES Reporting Station
Overcast Overcast  
Wind Chill: 37°   Ceiling: 6500
Heat Index: 41°   Visibility: 10mi
Dew Point: 37°   Wind: 6mph
Humidity: 87%   Direction: 250°WSW
Pressure: 29.95"   Gusts: NA
Location:  40.0606°N, 84.9258°W
Report Text: KVES 311115Z AUTO 25005KT 10SM SCT041 OVC065 05/03 A2995 RMK AO2
Loading
Personal Weather Stations






























Interactive Weather Map New forecast layout! Learn more

10-Day Weather Forecast

Advertisements
Track Severe Weather on mobile